sensor_id;sensor_type;location;lat;lon;timestamp;temperature;humidity
12849;DHT22;6493;50.928;7.172;2022-08-11T00:02:03;19.30;34.10
12849;DHT22;6493;50.928;7.172;2022-08-11T00:07:18;19.20;34.20
12849;DHT22;6493;50.928;7.172;2022-08-11T00:12:22;19.20;34.30
12849;DHT22;6493;50.928;7.172;2022-08-11T00:17:28;19.10;34.30
12849;DHT22;6493;50.928;7.172;2022-08-11T00:22:36;19.00;34.30
12849;DHT22;6493;50.928;7.172;2022-08-11T00:27:41;19.00;34.30
12849;DHT22;6493;50.928;7.172;2022-08-11T00:32:53;18.90;34.60
12849;DHT22;6493;50.928;7.172;2022-08-11T00:38:00;18.80;34.80
12849;DHT22;6493;50.928;7.172;2022-08-11T00:43:14;18.70;35.00
12849;DHT22;6493;50.928;7.172;2022-08-11T00:48:27;18.50;34.90
12849;DHT22;6493;50.928;7.172;2022-08-11T00:53:38;18.50;34.90
12849;DHT22;6493;50.928;7.172;2022-08-11T01:10:43;18.20;35.60
12849;DHT22;6493;50.928;7.172;2022-08-11T01:16:11;18.10;35.50
12849;DHT22;6493;50.928;7.172;2022-08-11T01:21:45;18.00;36.70
12849;DHT22;6493;50.928;7.172;2022-08-11T01:27:39;17.90;35.70
12849;DHT22;6493;50.928;7.172;2022-08-11T01:38:57;17.80;35.50
12849;DHT22;6493;50.928;7.172;2022-08-11T01:44:16;17.70;36.10
12849;DHT22;6493;50.928;7.172;2022-08-11T01:49:45;17.70;35.80
12849;DHT22;6493;50.928;7.172;2022-08-11T01:55:17;17.60;35.70
12849;DHT22;6493;50.928;7.172;2022-08-11T02:00:28;17.60;36.00
12849;DHT22;6493;50.928;7.172;2022-08-11T02:05:46;17.60;36.00
12849;DHT22;6493;50.928;7.172;2022-08-11T02:11:17;17.50;36.50
12849;DHT22;6493;50.928;7.172;2022-08-11T02:17:10;17.50;36.40
12849;DHT22;6493;50.928;7.172;2022-08-11T02:22:25;17.50;36.30
12849;DHT22;6493;50.928;7.172;2022-08-11T02:27:52;17.40;36.30
12849;DHT22;6493;50.928;7.172;2022-08-11T02:33:11;17.40;36.60
12849;DHT22;6493;50.928;7.172;2022-08-11T02:38:30;17.40;36.50
12849;DHT22;6493;50.928;7.172;2022-08-11T02:43:47;17.30;36.30
12849;DHT22;6493;50.928;7.172;2022-08-11T02:48:58;17.30;36.40
12849;DHT22;6493;50.928;7.172;2022-08-11T02:54:25;17.30;36.50
12849;DHT22;6493;50.928;7.172;2022-08-11T02:59:44;17.30;36.40
12849;DHT22;6493;50.928;7.172;2022-08-11T03:05:03;17.20;36.40
12849;DHT22;6493;50.928;7.172;2022-08-11T03:10:12;17.20;36.50
12849;DHT22;6493;50.928;7.172;2022-08-11T03:15:27;17.10;36.40
12849;DHT22;6493;50.928;7.172;2022-08-11T03:21:08;17.10;36.80
12849;DHT22;6493;50.928;7.172;2022-08-11T03:26:25;17.10;36.60
12849;DHT22;6493;50.928;7.172;2022-08-11T03:31:36;17.00;37.10
12849;DHT22;6493;50.928;7.172;2022-08-11T03:42:58;16.90;36.80
12849;DHT22;6493;50.928;7.172;2022-08-11T03:48:15;16.90;36.90
12849;DHT22;6493;50.928;7.172;2022-08-11T03:53:38;16.90;36.90
12849;DHT22;6493;50.928;7.172;2022-08-11T03:59:07;16.80;36.80
12849;DHT22;6493;50.928;7.172;2022-08-11T04:16:00;16.60;37.60
12849;DHT22;6493;50.928;7.172;2022-08-11T04:21:25;16.60;37.40
12849;DHT22;6493;50.928;7.172;2022-08-11T04:27:06;16.50;37.10
12849;DHT22;6493;50.928;7.172;2022-08-11T04:32:37;16.50;37.50
12849;DHT22;6493;50.928;7.172;2022-08-11T04:38:21;16.50;37.70
12849;DHT22;6493;50.928;7.172;2022-08-11T04:49:47;16.70;38.00
12849;DHT22;6493;50.928;7.172;2022-08-11T04:55:31;17.10;38.50
12849;DHT22;6493;50.928;7.172;2022-08-11T05:01:17;17.50;38.60
12849;DHT22;6493;50.928;7.172;2022-08-11T05:07:07;17.80;38.50
12849;DHT22;6493;50.928;7.172;2022-08-11T05:12:27;18.40;38.90
12849;DHT22;6493;50.928;7.172;2022-08-11T05:17:36;19.00;38.90
12849;DHT22;6493;50.928;7.172;2022-08-11T05:23:04;19.30;38.00
12849;DHT22;6493;50.928;7.172;2022-08-11T05:28:30;19.30;37.30
12849;DHT22;6493;50.928;7.172;2022-08-11T05:33:57;19.20;37.00
12849;DHT22;6493;50.928;7.172;2022-08-11T05:39:23;19.00;37.10
12849;DHT22;6493;50.928;7.172;2022-08-11T05:44:46;18.80;37.00
12849;DHT22;6493;50.928;7.172;2022-08-11T05:50:17;18.70;37.10
12849;DHT22;6493;50.928;7.172;2022-08-11T05:55:42;18.50;37.30
12849;DHT22;6493;50.928;7.172;2022-08-11T06:01:05;18.40;37.40
12849;DHT22;6493;50.928;7.172;2022-08-11T06:06:09;18.40;37.70
12849;DHT22;6493;50.928;7.172;2022-08-11T06:11:15;18.30;37.60
12849;DHT22;6493;50.928;7.172;2022-08-11T06:16:22;18.30;37.80
12849;DHT22;6493;50.928;7.172;2022-08-11T06:21:31;18.30;37.80
12849;DHT22;6493;50.928;7.172;2022-08-11T06:26:38;18.40;37.90
12849;DHT22;6493;50.928;7.172;2022-08-11T06:32:03;18.50;38.00
12849;DHT22;6493;50.928;7.172;2022-08-11T06:37:22;18.60;38.20
12849;DHT22;6493;50.928;7.172;2022-08-11T06:42:45;18.70;38.20
12849;DHT22;6493;50.928;7.172;2022-08-11T06:47:51;18.70;38.30
12849;DHT22;6493;50.928;7.172;2022-08-11T06:52:55;18.90;38.30
12849;DHT22;6493;50.928;7.172;2022-08-11T06:58:02;19.00;38.30
12849;DHT22;6493;50.928;7.172;2022-08-11T07:03:26;19.20;38.40
12849;DHT22;6493;50.928;7.172;2022-08-11T07:14:49;19.60;38.40
12849;DHT22;6493;50.928;7.172;2022-08-11T07:20:12;19.80;38.10
12849;DHT22;6493;50.928;7.172;2022-08-11T07:25:36;19.90;38.00
12849;DHT22;6493;50.928;7.172;2022-08-11T07:31:06;20.10;37.90
12849;DHT22;6493;50.928;7.172;2022-08-11T07:36:10;20.40;38.10
12849;DHT22;6493;50.928;7.172;2022-08-11T07:41:17;20.90;38.70
12849;DHT22;6493;50.928;7.172;2022-08-11T07:46:23;21.60;39.00
12849;DHT22;6493;50.928;7.172;2022-08-11T07:51:45;22.40;38.70
12849;DHT22;6493;50.928;7.172;2022-08-11T07:57:08;23.00;38.00
12849;DHT22;6493;50.928;7.172;2022-08-11T08:02:51;23.50;37.50
12849;DHT22;6493;50.928;7.172;2022-08-11T08:08:14;23.90;36.80
12849;DHT22;6493;50.928;7.172;2022-08-11T08:13:36;24.00;36.60
12849;DHT22;6493;50.928;7.172;2022-08-11T08:18:59;24.20;36.10
12849;DHT22;6493;50.928;7.172;2022-08-11T08:24:04;24.20;35.60
12849;DHT22;6493;50.928;7.172;2022-08-11T08:29:09;24.30;35.60
12849;DHT22;6493;50.928;7.172;2022-08-11T08:34:31;24.50;35.30
12849;DHT22;6493;50.928;7.172;2022-08-11T08:39:35;24.60;35.10
12849;DHT22;6493;50.928;7.172;2022-08-11T08:44:41;24.80;35.00
12849;DHT22;6493;50.928;7.172;2022-08-11T08:49:50;24.90;35.10
12849;DHT22;6493;50.928;7.172;2022-08-11T08:54:59;25.10;35.50
12849;DHT22;6493;50.928;7.172;2022-08-11T09:00:05;25.20;34.50
12849;DHT22;6493;50.928;7.172;2022-08-11T09:05:17;25.40;34.30
12849;DHT22;6493;50.928;7.172;2022-08-11T09:10:22;25.60;33.80
12849;DHT22;6493;50.928;7.172;2022-08-11T09:15:26;25.70;34.00
12849;DHT22;6493;50.928;7.172;2022-08-11T09:20:33;25.80;33.60
12849;DHT22;6493;50.928;7.172;2022-08-11T09:25:37;26.00;33.10
12849;DHT22;6493;50.928;7.172;2022-08-11T09:31:00;26.10;32.90
12849;DHT22;6493;50.928;7.172;2022-08-11T09:36:06;26.20;32.70
12849;DHT22;6493;50.928;7.172;2022-08-11T09:41:24;26.40;31.90
12849;DHT22;6493;50.928;7.172;2022-08-11T09:46:49;26.50;32.20
12849;DHT22;6493;50.928;7.172;2022-08-11T09:51:59;26.60;31.20
12849;DHT22;6493;50.928;7.172;2022-08-11T09:57:07;26.70;31.10
12849;DHT22;6493;50.928;7.172;2022-08-11T10:02:29;26.80;31.10
12849;DHT22;6493;50.928;7.172;2022-08-11T10:07:34;26.90;31.00
12849;DHT22;6493;50.928;7.172;2022-08-11T10:12:46;27.00;30.70
12849;DHT22;6493;50.928;7.172;2022-08-11T10:17:54;27.10;30.30
12849;DHT22;6493;50.928;7.172;2022-08-11T10:23:18;27.20;30.00
12849;DHT22;6493;50.928;7.172;2022-08-11T10:29:01;27.30;30.00
12849;DHT22;6493;50.928;7.172;2022-08-11T10:34:34;27.40;29.80
12849;DHT22;6493;50.928;7.172;2022-08-11T10:39:42;27.40;29.80
12849;DHT22;6493;50.928;7.172;2022-08-11T10:44:51;27.40;30.50
12849;DHT22;6493;50.928;7.172;2022-08-11T10:49:55;27.60;30.00
12849;DHT22;6493;50.928;7.172;2022-08-11T10:55:15;27.80;30.30
12849;DHT22;6493;50.928;7.172;2022-08-11T11:00:37;28.00;29.90
12849;DHT22;6493;50.928;7.172;2022-08-11T11:05:42;28.10;29.50
12849;DHT22;6493;50.928;7.172;2022-08-11T11:11:09;28.20;28.90
12849;DHT22;6493;50.928;7.172;2022-08-11T11:16:20;28.10;28.90
12849;DHT22;6493;50.928;7.172;2022-08-11T11:21:41;28.20;28.70
12849;DHT22;6493;50.928;7.172;2022-08-11T11:26:53;28.20;28.50
12849;DHT22;6493;50.928;7.172;2022-08-11T11:32:12;28.20;28.30
12849;DHT22;6493;50.928;7.172;2022-08-11T11:37:19;28.30;28.30
12849;DHT22;6493;50.928;7.172;2022-08-11T11:42:25;28.30;28.40
12849;DHT22;6493;50.928;7.172;2022-08-11T11:47:29;28.40;28.70
12849;DHT22;6493;50.928;7.172;2022-08-11T11:52:34;28.60;28.30
12849;DHT22;6493;50.928;7.172;2022-08-11T11:57:41;28.60;28.30
12849;DHT22;6493;50.928;7.172;2022-08-11T12:03:07;28.70;28.20
12849;DHT22;6493;50.928;7.172;2022-08-11T12:08:12;28.90;28.30
12849;DHT22;6493;50.928;7.172;2022-08-11T12:13:19;29.00;28.30
12849;DHT22;6493;50.928;7.172;2022-08-11T12:18:42;29.00;28.00
12849;DHT22;6493;50.928;7.172;2022-08-11T12:23:54;29.00;27.70
12849;DHT22;6493;50.928;7.172;2022-08-11T12:29:19;29.10;27.70
12849;DHT22;6493;50.928;7.172;2022-08-11T12:34:25;29.10;27.90
12849;DHT22;6493;50.928;7.172;2022-08-11T12:39:33;29.10;27.40
12849;DHT22;6493;50.928;7.172;2022-08-11T12:45:18;29.10;27.70
12849;DHT22;6493;50.928;7.172;2022-08-11T12:50:30;29.20;27.90
12849;DHT22;6493;50.928;7.172;2022-08-11T12:55:53;29.30;27.20
12849;DHT22;6493;50.928;7.172;2022-08-11T13:01:16;29.30;27.20
12849;DHT22;6493;50.928;7.172;2022-08-11T13:06:40;29.30;26.60
12849;DHT22;6493;50.928;7.172;2022-08-11T13:11:45;29.30;26.70
12849;DHT22;6493;50.928;7.172;2022-08-11T13:17:08;29.20;26.90
12849;DHT22;6493;50.928;7.172;2022-08-11T13:22:48;29.20;26.80
12849;DHT22;6493;50.928;7.172;2022-08-11T13:27:55;29.20;26.80
12849;DHT22;6493;50.928;7.172;2022-08-11T13:33:04;29.20;26.60
12849;DHT22;6493;50.928;7.172;2022-08-11T13:38:09;29.20;26.80
12849;DHT22;6493;50.928;7.172;2022-08-11T13:43:20;29.20;26.80
12849;DHT22;6493;50.928;7.172;2022-08-11T13:48:26;29.20;26.80
12849;DHT22;6493;50.928;7.172;2022-08-11T13:53:30;29.30;26.80
12849;DHT22;6493;50.928;7.172;2022-08-11T13:58:35;29.30;26.70
12849;DHT22;6493;50.928;7.172;2022-08-11T14:03:44;29.40;26.70
12849;DHT22;6493;50.928;7.172;2022-08-11T14:09:09;29.30;26.10
12849;DHT22;6493;50.928;7.172;2022-08-11T14:14:21;29.30;26.10
12849;DHT22;6493;50.928;7.172;2022-08-11T14:19:27;29.20;26.10
12849;DHT22;6493;50.928;7.172;2022-08-11T14:24:31;29.20;26.30
12849;DHT22;6493;50.928;7.172;2022-08-11T14:29:38;29.20;26.20
12849;DHT22;6493;50.928;7.172;2022-08-11T14:34:52;29.20;26.00
12849;DHT22;6493;50.928;7.172;2022-08-11T14:39:57;29.20;26.00
12849;DHT22;6493;50.928;7.172;2022-08-11T14:45:08;29.20;26.00
12849;DHT22;6493;50.928;7.172;2022-08-11T14:51:00;29.20;26.00
12849;DHT22;6493;50.928;7.172;2022-08-11T14:56:04;29.20;25.90
12849;DHT22;6493;50.928;7.172;2022-08-11T15:01:25;29.20;25.70
12849;DHT22;6493;50.928;7.172;2022-08-11T15:06:50;29.10;25.80
12849;DHT22;6493;50.928;7.172;2022-08-11T15:11:54;29.00;25.60
12849;DHT22;6493;50.928;7.172;2022-08-11T15:17:35;29.00;25.80
12849;DHT22;6493;50.928;7.172;2022-08-11T15:22:46;28.90;25.90
12849;DHT22;6493;50.928;7.172;2022-08-11T15:28:17;28.90;25.80
12849;DHT22;6493;50.928;7.172;2022-08-11T15:33:42;28.90;25.90
12849;DHT22;6493;50.928;7.172;2022-08-11T15:39:11;28.90;26.00
12849;DHT22;6493;50.928;7.172;2022-08-11T15:44:22;28.80;25.90
12849;DHT22;6493;50.928;7.172;2022-08-11T15:50:05;28.80;25.80
12849;DHT22;6493;50.928;7.172;2022-08-11T15:55:16;28.70;26.00
12849;DHT22;6493;50.928;7.172;2022-08-11T16:00:21;28.70;25.90
12849;DHT22;6493;50.928;7.172;2022-08-11T16:05:43;28.70;25.70
12849;DHT22;6493;50.928;7.172;2022-08-11T16:10:56;28.70;25.90
12849;DHT22;6493;50.928;7.172;2022-08-11T16:16:02;28.60;25.90
12849;DHT22;6493;50.928;7.172;2022-08-11T16:21:22;28.60;25.90
12849;DHT22;6493;50.928;7.172;2022-08-11T16:26:40;28.60;25.80
12849;DHT22;6493;50.928;7.172;2022-08-11T16:32:04;28.50;25.80
12849;DHT22;6493;50.928;7.172;2022-08-11T16:37:22;28.40;25.50
12849;DHT22;6493;50.928;7.172;2022-08-11T16:42:46;28.30;25.60
12849;DHT22;6493;50.928;7.172;2022-08-11T16:48:14;28.20;25.80
12849;DHT22;6493;50.928;7.172;2022-08-11T16:53:38;28.20;25.90
12849;DHT22;6493;50.928;7.172;2022-08-11T16:59:07;28.10;25.90
12849;DHT22;6493;50.928;7.172;2022-08-11T17:04:26;28.10;26.00
12849;DHT22;6493;50.928;7.172;2022-08-11T17:09:48;28.00;26.00
12849;DHT22;6493;50.928;7.172;2022-08-11T17:15:31;28.00;26.00
12849;DHT22;6493;50.928;7.172;2022-08-11T17:20:54;27.90;26.00
12849;DHT22;6493;50.928;7.172;2022-08-11T17:25:58;27.80;26.00
12849;DHT22;6493;50.928;7.172;2022-08-11T17:31:08;27.70;25.90
12849;DHT22;6493;50.928;7.172;2022-08-11T17:36:30;27.60;25.90
12849;DHT22;6493;50.928;7.172;2022-08-11T17:41:34;27.50;26.00
12849;DHT22;6493;50.928;7.172;2022-08-11T17:46:57;27.40;25.80
12849;DHT22;6493;50.928;7.172;2022-08-11T17:52:26;27.30;25.80
12849;DHT22;6493;50.928;7.172;2022-08-11T17:57:47;27.20;25.90
12849;DHT22;6493;50.928;7.172;2022-08-11T18:03:12;27.00;25.90
12849;DHT22;6493;50.928;7.172;2022-08-11T18:08:36;26.90;25.90
12849;DHT22;6493;50.928;7.172;2022-08-11T18:14:01;26.80;26.00
12849;DHT22;6493;50.928;7.172;2022-08-11T18:19:24;26.70;26.00
12849;DHT22;6493;50.928;7.172;2022-08-11T18:24:49;26.60;26.00
12849;DHT22;6493;50.928;7.172;2022-08-11T18:30:11;26.50;26.10
12849;DHT22;6493;50.928;7.172;2022-08-11T18:35:34;26.40;26.10
12849;DHT22;6493;50.928;7.172;2022-08-11T18:40:58;26.20;26.10
12849;DHT22;6493;50.928;7.172;2022-08-11T18:46:22;26.20;26.30
12849;DHT22;6493;50.928;7.172;2022-08-11T18:51:51;26.10;26.40
12849;DHT22;6493;50.928;7.172;2022-08-11T18:57:14;25.90;26.30
12849;DHT22;6493;50.928;7.172;2022-08-11T19:02:51;25.90;26.40
12849;DHT22;6493;50.928;7.172;2022-08-11T19:08:14;25.80;26.50
12849;DHT22;6493;50.928;7.172;2022-08-11T19:13:38;25.70;26.60
12849;DHT22;6493;50.928;7.172;2022-08-11T19:19:01;25.50;26.60
12849;DHT22;6493;50.928;7.172;2022-08-11T19:24:25;25.40;26.60
12849;DHT22;6493;50.928;7.172;2022-08-11T19:29:48;25.20;26.70
12849;DHT22;6493;50.928;7.172;2022-08-11T19:35:15;25.10;26.70
12849;DHT22;6493;50.928;7.172;2022-08-11T19:40:39;25.00;26.80
12849;DHT22;6493;50.928;7.172;2022-08-11T19:46:02;24.90;26.90
12849;DHT22;6493;50.928;7.172;2022-08-11T19:51:26;24.80;27.00
12849;DHT22;6493;50.928;7.172;2022-08-11T19:56:57;24.70;27.10
12849;DHT22;6493;50.928;7.172;2022-08-11T20:02:19;24.60;27.20
12849;DHT22;6493;50.928;7.172;2022-08-11T20:07:41;24.50;27.20
12849;DHT22;6493;50.928;7.172;2022-08-11T20:13:05;24.40;27.20
12849;DHT22;6493;50.928;7.172;2022-08-11T20:18:28;24.30;27.30
12849;DHT22;6493;50.928;7.172;2022-08-11T20:23:49;24.10;27.40
12849;DHT22;6493;50.928;7.172;2022-08-11T20:29:13;24.00;27.50
12849;DHT22;6493;50.928;7.172;2022-08-11T20:34:35;23.80;27.60
12849;DHT22;6493;50.928;7.172;2022-08-11T20:39:58;23.70;27.70
12849;DHT22;6493;50.928;7.172;2022-08-11T20:45:28;23.50;27.70
12849;DHT22;6493;50.928;7.172;2022-08-11T20:50:58;23.30;27.90
12849;DHT22;6493;50.928;7.172;2022-08-11T20:56:21;23.10;27.90
12849;DHT22;6493;50.928;7.172;2022-08-11T21:01:48;23.00;28.10
12849;DHT22;6493;50.928;7.172;2022-08-11T21:07:13;22.80;28.20
12849;DHT22;6493;50.928;7.172;2022-08-11T21:12:41;22.70;28.30
12849;DHT22;6493;50.928;7.172;2022-08-11T21:18:27;22.60;28.50
12849;DHT22;6493;50.928;7.172;2022-08-11T21:23:50;22.50;28.50
12849;DHT22;6493;50.928;7.172;2022-08-11T21:29:12;22.30;28.60
12849;DHT22;6493;50.928;7.172;2022-08-11T21:34:35;22.20;28.70
12849;DHT22;6493;50.928;7.172;2022-08-11T21:39:58;22.10;28.90
12849;DHT22;6493;50.928;7.172;2022-08-11T21:45:20;21.90;29.10
12849;DHT22;6493;50.928;7.172;2022-08-11T21:50:44;21.70;29.10
12849;DHT22;6493;50.928;7.172;2022-08-11T21:56:05;21.60;29.30
12849;DHT22;6493;50.928;7.172;2022-08-11T22:01:30;21.50;29.40
12849;DHT22;6493;50.928;7.172;2022-08-11T22:06:54;21.30;29.50
12849;DHT22;6493;50.928;7.172;2022-08-11T22:12:15;21.20;29.80
12849;DHT22;6493;50.928;7.172;2022-08-11T22:17:41;21.10;29.90
12849;DHT22;6493;50.928;7.172;2022-08-11T22:23:04;20.90;29.90
12849;DHT22;6493;50.928;7.172;2022-08-11T22:28:36;20.80;30.00
12849;DHT22;6493;50.928;7.172;2022-08-11T22:33:58;20.70;30.10
12849;DHT22;6493;50.928;7.172;2022-08-11T22:39:21;20.60;30.40
12849;DHT22;6493;50.928;7.172;2022-08-11T22:44:43;20.50;30.60
12849;DHT22;6493;50.928;7.172;2022-08-11T22:50:07;20.30;30.70
12849;DHT22;6493;50.928;7.172;2022-08-11T22:55:31;20.20;30.80
12849;DHT22;6493;50.928;7.172;2022-08-11T23:00:53;20.10;31.20
12849;DHT22;6493;50.928;7.172;2022-08-11T23:06:15;20.00;31.40
12849;DHT22;6493;50.928;7.172;2022-08-11T23:11:39;19.90;31.10
12849;DHT22;6493;50.928;7.172;2022-08-11T23:17:11;19.80;31.40
12849;DHT22;6493;50.928;7.172;2022-08-11T23:22:33;19.70;31.30
12849;DHT22;6493;50.928;7.172;2022-08-11T23:27:58;19.70;31.40
12849;DHT22;6493;50.928;7.172;2022-08-11T23:33:21;19.60;31.50
12849;DHT22;6493;50.928;7.172;2022-08-11T23:38:44;19.60;31.70
12849;DHT22;6493;50.928;7.172;2022-08-11T23:44:07;19.50;31.70
12849;DHT22;6493;50.928;7.172;2022-08-11T23:49:29;19.40;32.00
12849;DHT22;6493;50.928;7.172;2022-08-11T23:54:51;19.40;31.90
